createdAt,value
2019-04-05T00:01:26.917Z,98809.55
2019-04-05T00:03:01.931Z,98809.35
2019-04-05T00:04:36.776Z,98805.92
2019-04-05T00:06:11.801Z,98808.57
2019-04-05T00:07:46.558Z,98812.26
2019-04-05T00:09:21.653Z,98823.52
2019-04-05T00:10:56.418Z,98830.47
2019-04-05T00:12:31.132Z,98826.42
2019-04-05T00:14:05.600Z,98827.64
2019-04-05T00:15:39.961Z,98837.23
2019-04-05T00:17:14.625Z,98845.85
2019-04-05T00:18:49.041Z,98844.88
2019-04-05T00:20:23.460Z,98840.45
2019-04-05T00:21:57.809Z,98845.19
2019-04-05T00:23:32.176Z,98845.10
2019-04-05T00:25:07.314Z,98848.31
2019-04-05T00:26:41.659Z,98857.69
2019-04-05T00:28:16.024Z,98864.57
2019-04-05T00:29:50.721Z,98867.81
2019-04-05T00:31:25.330Z,98867.80
2019-04-05T00:32:59.684Z,98869.55
2019-04-05T00:34:34.105Z,98871.95
2019-04-05T00:36:08.538Z,98872.23
2019-04-05T00:37:42.929Z,98872.72
2019-04-05T00:39:17.340Z,98876.77
2019-04-05T00:40:51.753Z,98880.00
2019-04-05T00:42:26.132Z,98881.61
2019-04-05T00:44:00.745Z,98888.55
2019-04-05T00:45:35.094Z,98893.77
2019-04-05T00:47:09.847Z,98894.81
2019-04-05T00:48:44.297Z,98890.39
2019-04-05T00:50:18.852Z,98894.55
2019-04-05T00:51:53.364Z,98898.98
2019-04-05T00:53:27.704Z,98906.10
2019-04-05T00:55:02.160Z,98911.47
2019-04-05T00:56:36.603Z,98912.31
2019-04-05T00:58:11.017Z,98919.28
2019-04-05T00:59:45.442Z,98911.30
2019-04-05T01:01:19.890Z,98915.24
2019-04-05T01:02:54.578Z,98912.18
2019-04-05T01:04:29.770Z,98918.02
2019-04-05T01:06:05.527Z,98919.66
2019-04-05T01:07:40.951Z,98923.51
2019-04-05T01:09:15.722Z,98927.20
2019-04-05T01:10:50.572Z,98934.17
2019-04-05T01:12:26.676Z,98935.97
2019-04-05T01:14:01.817Z,98937.94
2019-04-05T01:15:41.038Z,98937.45
2019-04-05T01:17:24.417Z,98944.74
2019-04-05T01:18:50.289Z,98948.22
2019-04-05T01:20:29.706Z,98949.73
2019-04-05T01:22:09.502Z,98952.66
2019-04-05T01:23:44.482Z,98953.34
2019-04-05T01:25:21.136Z,98956.27
2019-04-05T01:26:56.225Z,98957.95
2019-04-05T01:28:30.896Z,98956.94
2019-04-05T01:30:07.188Z,98955.58
2019-04-05T01:31:41.890Z,98957.37
2019-04-05T01:33:16.731Z,98961.91
2019-04-05T01:34:51.096Z,98962.41
2019-04-05T01:36:26.028Z,98957.47
2019-04-05T01:38:00.853Z,98968.11
2019-04-05T01:39:35.692Z,98969.25
2019-04-05T01:41:11.509Z,98970.52
2019-04-05T01:42:48.119Z,98974.83
2019-04-05T01:44:23.162Z,98978.22
2019-04-05T01:45:58.373Z,98984.02
2019-04-05T01:47:32.882Z,98979.77
2019-04-05T01:49:07.477Z,98982.07
2019-04-05T01:50:41.981Z,98980.60
2019-04-05T01:52:17.349Z,98975.13
2019-04-05T01:53:51.709Z,98978.53
2019-04-05T01:55:26.237Z,98976.22
2019-04-05T01:57:00.862Z,98983.17
2019-04-05T01:58:35.308Z,98978.27
2019-04-05T02:00:11.601Z,98984.53
2019-04-05T02:01:46.532Z,98978.23
2019-04-05T02:03:21.094Z,98977.70
2019-04-05T02:04:55.975Z,98971.86
2019-04-05T02:06:30.825Z,98976.63
2019-04-05T02:08:09.561Z,98975.73
2019-04-05T02:09:44.318Z,98980.20
2019-04-05T02:11:19.224Z,98983.66
2019-04-05T02:12:53.941Z,98984.42
2019-04-05T02:14:28.373Z,98982.80
2019-04-05T02:16:06.513Z,98990.62
2019-04-05T02:17:39.389Z,98992.75
2019-04-05T02:19:13.824Z,98990.62
2019-04-05T02:20:48.756Z,98999.51
2019-04-05T02:22:23.491Z,99004.17
2019-04-05T02:23:58.354Z,99006.47
2019-04-05T02:25:33.122Z,99008.58
2019-04-05T02:27:07.762Z,99014.89
2019-04-05T02:28:42.158Z,99017.25
2019-04-05T02:30:17.044Z,99032.41
2019-04-05T02:31:51.406Z,99024.36
2019-04-05T02:33:26.501Z,99023.34
2019-04-05T02:35:01.438Z,99014.55
2019-04-05T02:36:36.298Z,99013.19
2019-04-05T02:38:10.721Z,99015.83
2019-04-05T02:39:45.161Z,99018.45
2019-04-05T02:41:21.981Z,99015.88
2019-04-05T02:43:00.161Z,99023.27
2019-04-05T02:44:35.675Z,99017.19
2019-04-05T02:46:23.572Z,99017.05
2019-04-05T02:47:53.774Z,99019.65
2019-04-05T02:49:32.999Z,99019.40
2019-04-05T02:51:10.618Z,99020.39
2019-04-05T02:52:48.993Z,99025.27
2019-04-05T02:54:25.146Z,99026.45
2019-04-05T02:56:03.039Z,99027.66
2019-04-05T02:57:38.656Z,99031.28
2019-04-05T02:59:15.749Z,99034.19
2019-04-05T03:00:51.645Z,99041.20
2019-04-05T03:02:28.298Z,99036.28
2019-04-05T03:04:04.654Z,99044.79
2019-04-05T03:05:40.611Z,99045.91
2019-04-05T03:07:16.275Z,99043.21
2019-04-05T03:08:52.011Z,99042.63
2019-04-05T03:11:07.760Z,99045.05
2019-04-05T03:12:42.951Z,99042.07
2019-04-05T03:14:19.833Z,99050.26
2019-04-05T03:15:59.429Z,99049.46
2019-04-05T03:17:37.377Z,99047.63
2019-04-05T03:19:19.089Z,99046.91
2019-04-05T03:20:56.977Z,99054.08
2019-04-05T03:22:34.629Z,99053.16
2019-04-05T03:24:14.745Z,99048.00
2019-04-05T03:25:51.046Z,99052.17
2019-04-05T03:27:31.383Z,99045.98
2019-04-05T03:29:10.273Z,99046.28
2019-04-05T03:30:45.720Z,99043.48
2019-04-05T03:32:21.218Z,99052.25
2019-04-05T03:33:57.359Z,99049.09
2019-04-05T03:35:32.692Z,99055.54
2019-04-05T03:37:08.171Z,99049.81
2019-04-05T03:38:43.030Z,99053.38
2019-04-05T03:40:17.901Z,99060.94
2019-04-05T03:41:54.478Z,99060.07
2019-04-05T03:43:29.511Z,99060.84
2019-04-05T03:45:04.538Z,99067.02
2019-04-05T03:46:54.869Z,99058.88
2019-04-05T03:48:16.409Z,99066.11
2019-04-05T03:49:50.873Z,99072.69
2019-04-05T03:51:25.678Z,99072.08
2019-04-05T03:53:00.149Z,99072.31
2019-04-05T03:54:34.883Z,99077.75
2019-04-05T03:56:09.486Z,99072.68
2019-04-05T03:57:45.069Z,99077.70
2019-04-05T03:59:21.009Z,99088.65
2019-04-05T04:00:55.511Z,99086.95
2019-04-05T04:02:30.162Z,99092.05
2019-04-05T04:04:04.897Z,99092.59
2019-04-05T04:05:39.854Z,99095.30
2019-04-05T04:07:14.324Z,99090.02
2019-04-05T04:08:48.982Z,99092.34
2019-04-05T04:10:25.607Z,99089.27
2019-04-05T04:12:00.467Z,99089.49
2019-04-05T04:13:34.905Z,99093.07
2019-04-05T04:15:15.837Z,99097.56
2019-04-05T04:16:50.785Z,99104.67
2019-04-05T04:18:25.377Z,99114.42
2019-04-05T04:20:00.091Z,99111.51
2019-04-05T04:21:41.714Z,99107.68
2019-04-05T04:23:16.743Z,99114.59
2019-04-05T04:24:51.592Z,99114.17
2019-04-05T04:26:26.198Z,99118.88
2019-04-05T04:28:00.895Z,99118.70
2019-04-05T04:29:35.402Z,99117.61
2019-04-05T04:31:09.866Z,99125.22
2019-04-05T04:32:44.671Z,99123.67
2019-04-05T04:34:20.463Z,99130.48
2019-04-05T04:35:54.910Z,99128.73
2019-04-05T04:37:29.402Z,99126.05
2019-04-05T04:39:05.959Z,99126.88
2019-04-05T04:40:40.774Z,99135.17
2019-04-05T04:42:16.132Z,99138.13
2019-04-05T04:43:50.805Z,99141.55
2019-04-05T04:45:25.694Z,99148.22
2019-04-05T04:47:01.097Z,99144.19
2019-04-05T04:48:35.990Z,99146.14
2019-04-05T04:50:11.695Z,99139.31
2019-04-05T04:51:46.463Z,99147.67
2019-04-05T04:53:21.442Z,99144.22
2019-04-05T04:54:56.274Z,99143.93
2019-04-05T04:56:31.470Z,99146.27
2019-04-05T04:58:06.301Z,99152.67
2019-04-05T04:59:41.005Z,99149.40
2019-04-05T05:01:15.376Z,99158.83
2019-04-05T05:02:51.221Z,99157.98
2019-04-05T05:04:26.559Z,99162.02
2019-04-05T05:06:01.605Z,99156.91
2019-04-05T05:07:37.220Z,99162.86
2019-04-05T05:09:12.731Z,99161.08
2019-04-05T05:10:48.765Z,99162.91
2019-04-05T05:12:24.957Z,99162.52
2019-04-05T05:13:59.895Z,99167.88
2019-04-05T05:15:35.347Z,99162.78
2019-04-05T05:17:10.527Z,99164.33
2019-04-05T05:18:45.652Z,99173.17
2019-04-05T05:20:20.943Z,99179.41
2019-04-05T05:21:56.516Z,99175.47
2019-04-05T05:23:31.885Z,99177.59
2019-04-05T05:25:07.727Z,99181.70
2019-04-05T05:26:42.963Z,99182.23
2019-04-05T05:28:18.467Z,99184.72
2019-04-05T05:29:53.773Z,99182.22
2019-04-05T05:31:28.774Z,99188.38
2019-04-05T05:33:03.904Z,99188.95
2019-04-05T05:34:38.967Z,99192.98
2019-04-05T05:36:14.478Z,99194.55
2019-04-05T05:37:50.161Z,99197.59
2019-04-05T05:39:25.149Z,99194.40
2019-04-05T05:41:00.565Z,99200.87
2019-04-05T05:42:35.527Z,99192.90
2019-04-05T05:44:10.442Z,99199.62
2019-04-05T05:45:45.535Z,99204.20
2019-04-05T05:47:20.658Z,99204.33
2019-04-05T05:48:55.437Z,99209.19
2019-04-05T05:50:30.263Z,99201.50
2019-04-05T05:52:04.950Z,99192.75
2019-04-05T05:53:39.829Z,99189.42
2019-04-05T05:55:14.775Z,99192.46
2019-04-05T05:56:49.218Z,99194.83
2019-04-05T05:58:25.684Z,99192.05
2019-04-05T06:00:00.613Z,99190.87
2019-04-05T06:01:36.300Z,99198.66
2019-04-05T06:03:12.065Z,99199.88
2019-04-05T06:04:46.879Z,99201.80
2019-04-05T06:06:21.783Z,99199.13
2019-04-05T06:07:56.569Z,99200.55
2019-04-05T06:09:31.437Z,99199.53
2019-04-05T06:11:06.322Z,99196.14
2019-04-05T06:12:41.125Z,99200.69
2019-04-05T06:14:15.918Z,99196.00
2019-04-05T06:15:50.791Z,99209.54
2019-04-05T06:17:25.836Z,99204.47
2019-04-05T06:19:01.165Z,99210.64
2019-04-05T06:20:36.102Z,99201.26
2019-04-05T06:22:11.218Z,99206.66
2019-04-05T06:23:45.999Z,99212.75
2019-04-05T06:25:20.854Z,99214.93
2019-04-05T06:26:55.286Z,99216.67
2019-04-05T06:28:29.670Z,99217.28
2019-04-05T06:30:05.207Z,99222.61
2019-04-05T06:31:39.800Z,99219.11
2019-04-05T06:33:14.157Z,99216.34
2019-04-05T06:34:48.837Z,99221.02
2019-04-05T06:36:23.545Z,99219.31
2019-04-05T06:37:58.276Z,99229.06
2019-04-05T06:39:33.324Z,99224.16
2019-04-05T06:41:08.118Z,99226.78
2019-04-05T06:42:42.903Z,99228.54
2019-04-05T06:44:18.336Z,99229.80
2019-04-05T06:45:53.168Z,99230.91
2019-04-05T06:47:27.990Z,99236.50
2019-04-05T06:49:02.823Z,99230.58
2019-04-05T06:50:38.292Z,99232.20
2019-04-05T06:52:13.072Z,99227.85
2019-04-05T06:53:47.735Z,99229.29
2019-04-05T06:55:22.393Z,99226.98
2019-04-05T06:56:56.818Z,99236.14
2019-04-05T06:58:31.204Z,99233.70
2019-04-05T07:00:06.415Z,99240.73
2019-04-05T07:01:40.856Z,99235.22
2019-04-05T07:03:15.601Z,99240.63
2019-04-05T07:04:50.506Z,99238.59
2019-04-05T07:06:25.014Z,99227.77
2019-04-05T07:07:59.732Z,99231.40
2019-04-05T07:09:34.447Z,99235.89
2019-04-05T07:11:09.085Z,99231.59
2019-04-05T07:12:43.843Z,99242.04
2019-04-05T07:14:18.230Z,99246.59
2019-04-05T07:15:53.254Z,99241.10
2019-04-05T07:17:27.652Z,99244.69
2019-04-05T07:19:02.275Z,99236.73
2019-04-05T07:20:36.903Z,99238.83
2019-04-05T07:22:11.663Z,99245.55
2019-04-05T07:23:46.333Z,99259.09
2019-04-05T07:25:20.777Z,99254.69
2019-04-05T07:26:55.210Z,99260.28
2019-04-05T07:28:29.618Z,99252.75
2019-04-05T07:30:04.374Z,99247.94
2019-04-05T07:31:38.805Z,99247.26
2019-04-05T07:33:13.222Z,99250.09
2019-04-05T07:34:47.881Z,99255.25
2019-04-05T07:36:22.617Z,99245.72
2019-04-05T07:37:57.413Z,99240.95
2019-04-05T07:39:32.186Z,99245.38
2019-04-05T07:41:07.005Z,99242.30
2019-04-05T07:42:42.020Z,99245.38
2019-04-05T07:44:16.807Z,99255.34
2019-04-05T07:45:51.824Z,99246.67
2019-04-05T07:47:26.876Z,99242.56
2019-04-05T07:49:02.135Z,99247.94
2019-04-05T07:50:36.904Z,99251.52
2019-04-05T07:52:13.135Z,99248.69
2019-04-05T07:53:48.351Z,99249.41
2019-04-05T07:55:23.205Z,99246.63
2019-04-05T07:56:58.395Z,99254.42
2019-04-05T07:58:33.441Z,99254.13
2019-04-05T08:00:10.795Z,99253.22
2019-04-05T08:01:45.986Z,99254.23
2019-04-05T08:03:21.859Z,99256.28
2019-04-05T08:04:56.976Z,99258.92
2019-04-05T08:06:34.127Z,99262.72
2019-04-05T08:08:14.311Z,99265.03
2019-04-05T08:09:49.527Z,99263.11
2019-04-05T08:11:26.523Z,99262.88
2019-04-05T08:13:03.952Z,99262.35
2019-04-05T08:14:40.903Z,99255.73
2019-04-05T08:16:15.838Z,99250.89
2019-04-05T08:17:51.106Z,99245.54
2019-04-05T08:19:26.191Z,99246.06
2019-04-05T08:21:01.236Z,99246.09
2019-04-05T08:22:36.022Z,99248.13
2019-04-05T08:24:11.027Z,99244.49
2019-04-05T08:25:46.342Z,99240.37
2019-04-05T08:27:21.118Z,99232.91
2019-04-05T08:28:55.995Z,99235.05
2019-04-05T08:30:30.785Z,99229.59
2019-04-05T08:32:14.311Z,99237.84
2019-04-05T08:33:42.162Z,99246.64
2019-04-05T08:35:16.952Z,99237.49
2019-04-05T08:36:51.972Z,99241.09
2019-04-05T08:38:27.053Z,99227.42
2019-04-05T08:40:02.078Z,99223.47
2019-04-05T08:41:37.180Z,99220.77
2019-04-05T08:43:11.963Z,99223.58
2019-04-05T08:44:46.761Z,99226.55
2019-04-05T08:46:21.863Z,99224.36
2019-04-05T08:47:56.638Z,99221.40
2019-04-05T08:49:31.502Z,99221.05
2019-04-05T08:51:06.566Z,99220.59
2019-04-05T08:52:41.590Z,99213.18
2019-04-05T08:54:16.376Z,99207.21
2019-04-05T08:55:51.217Z,99213.48
2019-04-05T08:57:26.075Z,99215.10
2019-04-05T08:59:01.118Z,99212.02
2019-04-05T09:00:35.896Z,99207.30
2019-04-05T09:02:10.672Z,99192.77
2019-04-05T09:03:45.556Z,99201.86
2019-04-05T09:05:20.342Z,99191.17
2019-04-05T09:06:54.805Z,99190.36
2019-04-05T09:08:29.555Z,99188.34
2019-04-05T09:10:04.652Z,99184.59
2019-04-05T09:11:39.433Z,99185.71
2019-04-05T09:13:14.447Z,99179.98
2019-04-05T09:14:49.224Z,99175.60
2019-04-05T09:16:24.107Z,99176.50
2019-04-05T09:17:59.151Z,99180.56
2019-04-05T09:19:33.933Z,99174.41
2019-04-05T09:21:10.266Z,99176.84
2019-04-05T09:22:45.192Z,99177.31
2019-04-05T09:24:19.976Z,99175.63
2019-04-05T09:25:54.802Z,99168.53
2019-04-05T09:27:29.575Z,99166.96
2019-04-05T09:29:04.534Z,99166.33
2019-04-05T09:30:39.396Z,99161.84
2019-04-05T09:32:14.177Z,99166.97
2019-04-05T09:33:49.195Z,99162.67
2019-04-05T09:35:23.983Z,99157.95
2019-04-05T09:36:59.253Z,99149.16
2019-04-05T09:38:34.279Z,99146.03
2019-04-05T09:40:09.294Z,99150.01
2019-04-05T09:41:44.105Z,99147.56
2019-04-05T09:43:19.120Z,99143.42
2019-04-05T09:44:54.164Z,99145.52
2019-04-05T09:46:28.945Z,99148.07
2019-04-05T09:48:03.759Z,99149.46
2019-04-05T09:49:38.534Z,99142.37
2019-04-05T09:51:13.397Z,99144.42
2019-04-05T09:52:48.524Z,99142.17
2019-04-05T09:54:23.575Z,99142.08
2019-04-05T09:55:58.360Z,99144.34
2019-04-05T09:57:33.139Z,99140.25
2019-04-05T09:59:08.023Z,99137.52
2019-04-05T10:00:43.451Z,99131.86
2019-04-05T10:02:18.236Z,99127.05
2019-04-05T10:03:53.119Z,99127.06
2019-04-05T10:05:27.887Z,99128.39
2019-04-05T10:07:02.707Z,99131.01
2019-04-05T10:08:37.484Z,99128.91
2019-04-05T10:10:12.727Z,99131.69
2019-04-05T10:11:47.582Z,99134.55
2019-04-05T10:13:22.477Z,99135.13
2019-04-05T10:14:57.739Z,99134.57
2019-04-05T10:16:32.848Z,99129.17
2019-04-05T10:18:07.708Z,99119.95
2019-04-05T10:19:49.702Z,99120.22
2019-04-05T10:21:19.315Z,99117.95
2019-04-05T10:22:54.354Z,99116.43
2019-04-05T10:24:29.123Z,99110.96
2019-04-05T10:26:04.852Z,99117.48
2019-04-05T10:27:39.639Z,99113.69
2019-04-05T10:29:14.428Z,99114.12
2019-04-05T10:30:51.793Z,99114.06
2019-04-05T10:32:25.785Z,99113.32
2019-04-05T10:34:00.576Z,99106.53
2019-04-05T10:35:35.391Z,99115.23
2019-04-05T10:37:10.542Z,99102.66
2019-04-05T10:38:45.336Z,99101.06
2019-04-05T10:40:20.592Z,99098.36
2019-04-05T10:42:03.202Z,99102.03
2019-04-05T10:43:32.457Z,99103.70
2019-04-05T10:45:09.874Z,99107.25
2019-04-05T10:46:44.669Z,99098.88
2019-04-05T10:48:19.703Z,99098.75
2019-04-05T10:50:03.177Z,99118.35
2019-04-05T10:51:31.512Z,99107.03
2019-04-05T10:53:06.534Z,99105.38
2019-04-05T10:54:41.717Z,99125.00
2019-04-05T10:56:16.920Z,99125.78
2019-04-05T10:57:51.801Z,99129.91
2019-04-05T10:59:26.859Z,99122.41
2019-04-05T11:01:01.839Z,99103.52
2019-04-05T11:02:36.822Z,99102.64
2019-04-05T11:04:11.741Z,99089.62
2019-04-05T11:05:49.111Z,99093.27
2019-04-05T11:07:23.593Z,99091.09
2019-04-05T11:08:58.628Z,99095.83
2019-04-05T11:10:33.662Z,99114.05
2019-04-05T11:12:08.857Z,99111.84
2019-04-05T11:13:43.775Z,99107.80
2019-04-05T11:15:18.584Z,99113.21
2019-04-05T11:16:58.753Z,99127.55
2019-04-05T11:18:30.665Z,99124.76
2019-04-05T11:20:20.684Z,99121.73
2019-04-05T11:21:47.931Z,99102.72
2019-04-05T11:23:22.294Z,99102.72
2019-04-05T11:24:57.081Z,99100.13
2019-04-05T11:26:31.995Z,99100.95
2019-04-05T11:28:06.772Z,99103.83
2019-04-05T11:29:41.581Z,99094.84
2019-04-05T11:31:16.342Z,99101.95
2019-04-05T11:32:51.795Z,99110.38
2019-04-05T11:34:26.642Z,99103.98
2019-04-05T11:36:01.639Z,99106.86
2019-04-05T11:37:39.519Z,99097.66
2019-04-05T11:39:14.096Z,99114.89
2019-04-05T11:40:49.090Z,99103.27
2019-04-05T11:42:27.420Z,99093.23
2019-04-05T11:44:02.820Z,99092.59
2019-04-05T11:45:37.850Z,99105.80
2019-04-05T11:47:12.870Z,99106.38
2019-04-05T11:48:48.722Z,99107.26
2019-04-05T11:50:33.899Z,99110.71
2019-04-05T11:52:00.118Z,99112.59
2019-04-05T11:53:34.891Z,99109.36
2019-04-05T11:55:10.383Z,99107.09
2019-04-05T11:56:45.169Z,99101.53
2019-04-05T11:58:19.973Z,99109.41
2019-04-05T11:59:54.364Z,99112.77
2019-04-05T12:01:34.843Z,99109.99
2019-04-05T12:03:10.736Z,99110.95
2019-04-05T12:04:45.776Z,99098.38
2019-04-05T12:06:20.539Z,99094.70
2019-04-05T12:08:00.778Z,99101.72
2019-04-05T12:09:31.820Z,99102.50
2019-04-05T12:11:07.132Z,99096.92
2019-04-05T12:12:42.131Z,99110.34
2019-04-05T12:14:29.332Z,99108.03
2019-04-05T12:15:53.402Z,99115.04
2019-04-05T12:17:28.551Z,99104.88
2019-04-05T12:19:04.772Z,99112.96
2019-04-05T12:20:49.230Z,99118.23
2019-04-05T12:22:19.734Z,99102.11
2019-04-05T12:23:53.500Z,99107.86
2019-04-05T12:25:28.791Z,99104.83
2019-04-05T12:27:04.852Z,99116.55
2019-04-05T12:28:40.567Z,99108.79
2019-04-05T12:30:17.907Z,99108.95
2019-04-05T12:31:53.518Z,99105.50
2019-04-05T12:33:28.415Z,99106.42
2019-04-05T12:35:03.699Z,99107.59
2019-04-05T12:36:38.382Z,99094.64
2019-04-05T12:38:14.673Z,99085.38
2019-04-05T12:39:49.633Z,99084.84
2019-04-05T12:41:24.679Z,99090.34
2019-04-05T12:42:59.829Z,99083.73
2019-04-05T12:44:34.593Z,99080.38
2019-04-05T12:46:09.519Z,99093.78
2019-04-05T12:47:45.593Z,99096.95
2019-04-05T12:49:20.960Z,99099.09
2019-04-05T12:51:01.232Z,99087.82
2019-04-05T12:52:32.552Z,99078.52
2019-04-05T12:54:07.391Z,99080.03
2019-04-05T12:55:42.685Z,99072.48
2019-04-05T12:57:17.464Z,99077.15
2019-04-05T12:58:53.680Z,99087.45
2019-04-05T13:00:29.227Z,99079.76
2019-04-05T13:02:04.141Z,99089.60
2019-04-05T13:03:39.653Z,99086.49
2019-04-05T13:05:15.229Z,99078.40
2019-04-05T13:06:52.671Z,99089.00
2019-04-05T13:08:27.281Z,99074.34
2019-04-05T13:10:02.586Z,99072.51
2019-04-05T13:11:37.947Z,99073.06
2019-04-05T13:13:12.715Z,99072.73
2019-04-05T13:14:47.525Z,99071.09
2019-04-05T13:17:01.753Z,99074.54
2019-04-05T13:18:47.721Z,99069.27
2019-04-05T13:20:51.597Z,99068.91
2019-04-05T13:22:56.701Z,99065.28
2019-04-05T13:26:33.423Z,99075.26
2019-04-05T13:28:58.196Z,99085.62
2019-04-05T13:30:32.965Z,99082.41
2019-04-05T13:32:21.554Z,99086.16
2019-04-05T13:33:55.257Z,99076.02
2019-04-05T13:35:30.697Z,99071.49
2019-04-05T13:37:05.573Z,99061.94
2019-04-05T13:38:40.313Z,99049.30
2019-04-05T13:40:14.934Z,99051.93
2019-04-05T13:41:49.289Z,99055.56
2019-04-05T13:43:23.649Z,99065.78
2019-04-05T13:44:58.318Z,99062.44
2019-04-05T13:46:32.786Z,99062.89
2019-04-05T13:48:08.916Z,99054.61
2019-04-05T13:49:43.453Z,99054.50
2019-04-05T13:51:27.721Z,99053.64
2019-04-05T13:52:54.426Z,99060.08
2019-04-05T13:54:28.777Z,99057.91
2019-04-05T13:56:03.412Z,99054.50
2019-04-05T13:57:38.445Z,99047.87
2019-04-05T13:59:13.921Z,99055.53
2019-04-05T14:00:49.838Z,99045.72
2019-04-05T14:02:25.034Z,99060.72
2019-04-05T14:04:00.203Z,99050.30
2019-04-05T14:05:35.124Z,99048.18
2019-04-05T14:07:09.892Z,99040.50
2019-04-05T14:08:44.922Z,99052.30
2019-04-05T14:10:19.974Z,99050.77
2019-04-05T14:11:55.008Z,99051.77
2019-04-05T14:13:29.784Z,99048.09
2019-04-05T14:15:04.968Z,99049.03
2019-04-05T14:16:42.735Z,99048.09
2019-04-05T14:18:16.283Z,99043.11
2019-04-05T14:19:51.404Z,99040.08
2019-04-05T14:21:39.492Z,99047.91
2019-04-05T14:23:04.379Z,99048.05
2019-04-05T14:24:39.140Z,99052.52
2019-04-05T14:26:13.912Z,99046.52
2019-04-05T14:27:48.313Z,99053.44
2019-04-05T14:29:22.819Z,99054.08
2019-04-05T14:30:57.783Z,99059.77
2019-04-05T14:32:32.557Z,99060.48
2019-04-05T14:34:07.412Z,99057.28
2019-04-05T14:35:42.287Z,99066.05
2019-04-05T14:37:17.069Z,99061.58
2019-04-05T14:38:51.959Z,99061.45
2019-04-05T14:40:29.399Z,99061.97
2019-04-05T14:42:09.634Z,99054.01
2019-04-05T14:43:40.287Z,99053.92
2019-04-05T14:45:15.380Z,99045.70
2019-04-05T14:46:50.155Z,99046.55
2019-04-05T14:48:27.350Z,99044.93
2019-04-05T14:50:01.164Z,99043.04
2019-04-05T14:51:35.509Z,99037.63
2019-04-05T14:53:10.351Z,99038.11
2019-04-05T14:54:45.392Z,99033.63
2019-04-05T14:56:20.167Z,99029.98
2019-04-05T14:57:54.941Z,99036.25
2019-04-05T14:59:32.693Z,99029.48
2019-04-05T15:01:06.375Z,99020.76
2019-04-05T15:02:43.683Z,99018.25
2019-04-05T15:04:17.759Z,99022.02
2019-04-05T15:05:52.157Z,99015.94
2019-04-05T15:07:26.884Z,99023.06
2019-04-05T15:09:02.178Z,99021.44
2019-04-05T15:10:37.427Z,99025.81
2019-04-05T15:12:12.036Z,99025.45
2019-04-05T15:13:46.513Z,99019.87
2019-04-05T15:15:20.870Z,99026.20
2019-04-05T15:16:55.457Z,99018.70
2019-04-05T15:18:29.829Z,99023.30
2019-04-05T15:20:05.642Z,99029.16
2019-04-05T15:21:40.066Z,99031.09
2019-04-05T15:23:14.588Z,99027.28
2019-04-05T15:24:49.021Z,99025.50
2019-04-05T15:26:23.941Z,99019.09
2019-04-05T15:27:59.168Z,99025.56
2019-04-05T15:29:34.175Z,99015.70
2019-04-05T15:31:08.952Z,99017.08
2019-04-05T15:32:44.005Z,99022.69
2019-04-05T15:34:18.793Z,99024.44
2019-04-05T15:35:53.568Z,99030.98
2019-04-05T15:37:31.782Z,99031.47
2019-04-05T15:39:09.115Z,99034.30
2019-04-05T15:40:43.991Z,99032.25
2019-04-05T15:42:19.010Z,99029.73
2019-04-05T15:43:53.786Z,99023.63
2019-04-05T15:45:28.590Z,99037.86
2019-04-05T15:47:03.824Z,99024.77
2019-04-05T15:48:38.618Z,99026.57
2019-04-05T15:50:13.712Z,99031.89
2019-04-05T15:51:48.522Z,99032.24
2019-04-05T15:53:23.522Z,99036.24
2019-04-05T15:54:58.309Z,99031.72
2019-04-05T15:56:34.158Z,99033.41
2019-04-05T15:58:08.953Z,99035.94
2019-04-05T15:59:45.090Z,99040.57
2019-04-05T16:01:19.564Z,99034.95
2019-04-05T16:02:54.266Z,99031.55
2019-04-05T16:04:28.733Z,99038.64
2019-04-05T16:06:03.165Z,99037.95
2019-04-05T16:07:37.778Z,99037.00
2019-04-05T16:09:17.047Z,99041.81
2019-04-05T16:10:51.878Z,99037.71
2019-04-05T16:12:26.231Z,99035.41
2019-04-05T16:14:00.619Z,99034.33
2019-04-05T16:15:35.039Z,99039.22
2019-04-05T16:17:12.247Z,99036.34
2019-04-05T16:18:45.501Z,99038.56
2019-04-05T16:20:20.298Z,99040.75
2019-04-05T16:21:54.659Z,99043.18
2019-04-05T16:23:29.285Z,99042.36
2019-04-05T16:25:04.764Z,99050.23
2019-04-05T16:26:39.384Z,99050.23
2019-04-05T16:28:13.972Z,99049.73
2019-04-05T16:29:48.360Z,99058.67
2019-04-05T16:31:22.740Z,99057.52
2019-04-05T16:32:57.505Z,99063.61
2019-04-05T16:34:31.858Z,99063.94
2019-04-05T16:36:06.210Z,99064.42
2019-04-05T16:37:40.650Z,99063.95
2019-04-05T16:39:17.925Z,99069.20
2019-04-05T16:40:52.307Z,99065.47
2019-04-05T16:42:26.959Z,99061.69
2019-04-05T16:44:01.316Z,99067.59
2019-04-05T16:45:38.422Z,99060.22
2019-04-05T16:47:11.725Z,99067.29
2019-04-05T16:48:46.103Z,99071.20
2019-04-05T16:50:21.830Z,99068.58
2019-04-05T16:51:56.176Z,99065.48
2019-04-05T16:53:31.168Z,99073.17
2019-04-05T16:55:06.187Z,99077.12
2019-04-05T16:56:40.610Z,99081.88
2019-04-05T16:58:14.988Z,99077.47
2019-04-05T16:59:49.400Z,99078.13
2019-04-05T17:01:27.135Z,99077.80
2019-04-05T17:03:00.333Z,99080.09
2019-04-05T17:04:35.340Z,99079.43
2019-04-05T17:06:10.373Z,99075.84
2019-04-05T17:07:45.407Z,99077.48
2019-04-05T17:09:20.474Z,99075.86
2019-04-05T17:10:55.220Z,99074.70
2019-04-05T17:12:30.233Z,99080.61
2019-04-05T17:14:05.608Z,99075.20
2019-04-05T17:15:40.390Z,99078.42
2019-04-05T17:17:15.531Z,99074.33
2019-04-05T17:18:50.531Z,99075.80
2019-04-05T17:20:25.585Z,99071.32
2019-04-05T17:21:59.981Z,99079.13
2019-04-05T17:23:34.755Z,99084.81
2019-04-05T17:25:09.101Z,99083.73
2019-04-05T17:26:43.770Z,99084.97
2019-04-05T17:28:18.131Z,99083.74
2019-04-05T17:29:52.482Z,99095.73
2019-04-05T17:31:27.338Z,99099.25
2019-04-05T17:33:01.778Z,99094.78
2019-04-05T17:34:36.129Z,99094.30
2019-04-05T17:36:10.559Z,99090.62
2019-04-05T17:37:45.302Z,99090.42
2019-04-05T17:39:19.678Z,99091.94
2019-04-05T17:40:54.045Z,99095.06
2019-04-05T17:42:28.461Z,99088.99
2019-04-05T17:44:03.253Z,99091.96
2019-04-05T17:45:37.897Z,99096.27
2019-04-05T17:47:12.313Z,99097.25
2019-04-05T17:48:46.667Z,99105.63
2019-04-05T17:50:32.838Z,99103.18
2019-04-05T17:52:07.595Z,99104.32
2019-04-05T17:53:42.197Z,99111.67
2019-04-05T17:55:16.808Z,99117.11
2019-04-05T17:56:51.667Z,99120.97
2019-04-05T17:58:28.658Z,99115.97
2019-04-05T18:00:03.534Z,99119.98
2019-04-05T18:01:38.859Z,99124.59
2019-04-05T18:03:13.359Z,99123.80
2019-04-05T18:04:48.088Z,99124.53
2019-04-05T18:06:22.453Z,99129.23
2019-04-05T18:07:57.155Z,99138.30
2019-04-05T18:09:31.767Z,99138.67
2019-04-05T18:11:06.324Z,99141.00
2019-04-05T18:12:41.179Z,99137.16
2019-04-05T18:14:15.798Z,99139.59
2019-04-05T18:15:52.613Z,99139.66
2019-04-05T18:17:26.539Z,99133.36
2019-04-05T18:19:01.577Z,99141.55
2019-04-05T18:20:36.158Z,99144.10
2019-04-05T18:22:10.622Z,99144.09
2019-04-05T18:23:45.266Z,99144.17
2019-04-05T18:25:19.641Z,99154.84
2019-04-05T18:26:54.044Z,99152.34
2019-04-05T18:28:29.061Z,99151.12
2019-04-05T18:30:04.424Z,99154.27
2019-04-05T18:31:38.796Z,99161.77
2019-04-05T18:33:13.250Z,99166.97
2019-04-05T18:34:47.671Z,99164.59
2019-04-05T18:36:22.590Z,99160.13
2019-04-05T18:37:56.959Z,99166.66
2019-04-05T18:39:31.415Z,99164.97
2019-04-05T18:41:05.798Z,99169.02
2019-04-05T18:42:40.661Z,99166.59
2019-04-05T18:44:15.531Z,99163.47